createdAt,value
2022-12-05T00:00:29.410Z,66.29
2022-12-05T00:02:31.561Z,66.13
2022-12-05T00:04:33.750Z,66.22
2022-12-05T00:06:36.933Z,66.48
2022-12-05T00:08:39.456Z,66.09
2022-12-05T00:10:41.549Z,66.19
2022-12-05T00:12:43.605Z,66.16
2022-12-05T00:14:45.649Z,65.77
2022-12-05T00:16:48.051Z,65.97
2022-12-05T00:18:50.968Z,66.54
2022-12-05T00:20:52.928Z,66.37
2022-12-05T00:22:55.019Z,66.49
2022-12-05T00:24:57.092Z,66.28
2022-12-05T00:26:59.179Z,66.90
2022-12-05T00:29:01.320Z,66.64
2022-12-05T00:31:13.530Z,66.76
2022-12-05T00:33:15.650Z,66.81
2022-12-05T00:35:17.844Z,66.47
2022-12-05T00:37:19.950Z,66.44
2022-12-05T00:39:22.036Z,66.91
2022-12-05T00:41:27.099Z,66.85
2022-12-05T00:43:29.197Z,66.67
2022-12-05T00:45:31.296Z,66.78
2022-12-05T00:47:37.303Z,67.14
2022-12-05T00:49:39.249Z,67.06
2022-12-05T00:51:43.100Z,67.07
2022-12-05T00:53:46.349Z,67.45
2022-12-05T00:55:48.311Z,67.16
2022-12-05T00:57:50.347Z,67.06
2022-12-05T00:59:52.411Z,67.30
2022-12-05T01:01:54.571Z,67.06
2022-12-05T01:03:58.168Z,66.94
2022-12-05T01:06:00.570Z,66.58
2022-12-05T01:08:02.709Z,66.45
2022-12-05T01:10:05.884Z,66.63
2022-12-05T01:12:08.370Z,66.93
2022-12-05T01:14:12.700Z,66.89
2022-12-05T01:16:18.945Z,67.19
2022-12-05T01:18:22.770Z,66.46
2022-12-05T01:20:24.760Z,66.40
2022-12-05T01:22:26.812Z,66.71
2022-12-05T01:24:30.308Z,66.34
2022-12-05T01:26:32.579Z,66.12
2022-12-05T01:28:35.976Z,66.47
2022-12-05T01:30:40.028Z,66.20
2022-12-05T01:32:42.470Z,66.31
2022-12-05T01:34:44.820Z,65.99
2022-12-05T01:36:47.620Z,66.17
2022-12-05T01:38:50.509Z,66.54
2022-12-05T01:41:01.178Z,66.50
2022-12-05T01:43:03.828Z,66.59
2022-12-05T01:45:22.989Z,67.02
2022-12-05T01:47:28.297Z,66.77
2022-12-05T01:49:36.531Z,66.99
2022-12-05T01:51:41.827Z,67.17
2022-12-05T01:53:43.890Z,67.17
2022-12-05T01:55:48.379Z,67.48
2022-12-05T01:57:50.792Z,67.06
2022-12-05T02:00:00.043Z,67.73
2022-12-05T02:02:03.520Z,67.28
2022-12-05T02:04:06.540Z,67.11
2022-12-05T02:06:09.857Z,66.97
2022-12-05T02:08:12.438Z,67.22
2022-12-05T02:10:15.250Z,67.35
2022-12-05T02:12:20.398Z,67.60
2022-12-05T02:14:32.377Z,67.70
2022-12-05T02:16:47.306Z,67.66
2022-12-05T02:19:08.536Z,67.63
2022-12-05T02:21:20.048Z,67.43
2022-12-05T02:23:36.611Z,67.44
2022-12-05T02:25:57.671Z,67.64
2022-12-05T02:28:10.630Z,68.20
2022-12-05T02:30:19.925Z,67.85
2022-12-05T02:32:31.455Z,68.00
2022-12-05T02:34:45.545Z,68.07
2022-12-05T02:36:55.284Z,68.04
2022-12-05T02:39:11.609Z,67.68
2022-12-05T02:41:19.474Z,68.09
2022-12-05T02:43:36.624Z,68.19
2022-12-05T02:45:41.601Z,67.93
2022-12-05T02:47:47.830Z,67.78
2022-12-05T02:49:53.095Z,67.98
2022-12-05T02:51:59.074Z,67.73
2022-12-05T02:54:04.730Z,67.95
2022-12-05T02:56:07.834Z,68.08
2022-12-05T02:58:15.289Z,67.46
2022-12-05T03:00:17.629Z,67.40
2022-12-05T03:02:28.427Z,67.42
2022-12-05T03:04:31.806Z,67.10
2022-12-05T03:06:39.585Z,67.37
2022-12-05T03:08:48.779Z,67.44
2022-12-05T03:10:53.015Z,67.18
2022-12-05T03:13:04.069Z,67.34
2022-12-05T03:15:15.673Z,66.89
2022-12-05T03:17:23.299Z,66.99
2022-12-05T03:19:37.979Z,67.19
2022-12-05T03:21:50.229Z,67.11
2022-12-05T03:23:58.445Z,67.26
2022-12-05T03:26:14.669Z,67.17
2022-12-05T03:28:25.524Z,66.80
2022-12-05T03:30:27.290Z,66.82
2022-12-05T03:32:42.485Z,67.04
2022-12-05T03:35:01.490Z,67.15
2022-12-05T03:37:10.822Z,67.09
2022-12-05T03:39:23.924Z,66.78
2022-12-05T03:41:34.981Z,66.56
2022-12-05T03:43:47.841Z,66.97
2022-12-05T03:45:53.252Z,66.99
2022-12-05T03:48:10.211Z,67.26
2022-12-05T03:50:19.199Z,67.83
2022-12-05T03:52:29.195Z,67.44
2022-12-05T03:54:38.175Z,67.42
2022-12-05T03:56:46.829Z,67.55
2022-12-05T03:58:55.589Z,67.64
2022-12-05T04:01:01.789Z,67.65
2022-12-05T04:03:08.571Z,67.49
2022-12-05T04:05:16.674Z,67.58
2022-12-05T04:07:20.604Z,67.34
2022-12-05T04:09:28.884Z,67.36
2022-12-05T04:11:34.779Z,67.32
2022-12-05T04:13:44.522Z,67.12
2022-12-05T04:16:03.395Z,66.55
2022-12-05T04:18:06.799Z,66.48
2022-12-05T04:20:19.319Z,66.56
2022-12-05T04:22:22.666Z,66.98
2022-12-05T04:24:39.285Z,66.84
2022-12-05T04:26:50.169Z,66.80
2022-12-05T04:28:52.005Z,66.18
2022-12-05T04:31:09.759Z,66.39
2022-12-05T04:33:16.114Z,66.35
2022-12-05T04:35:26.469Z,66.59
2022-12-05T04:37:34.224Z,66.13
2022-12-05T04:39:44.389Z,66.51
2022-12-05T04:41:52.860Z,66.34
2022-12-05T04:43:59.268Z,66.27
2022-12-05T04:46:06.340Z,66.32
2022-12-05T04:48:13.394Z,66.34
2022-12-05T04:50:17.884Z,66.14
2022-12-05T04:52:20.036Z,65.82
2022-12-05T04:54:28.373Z,66.10
2022-12-05T04:56:34.599Z,65.30
2022-12-05T04:58:36.482Z,65.26
2022-12-05T05:00:48.852Z,65.68
2022-12-05T05:02:51.581Z,65.73
2022-12-05T05:04:58.043Z,65.71
2022-12-05T05:07:00.081Z,65.32
2022-12-05T05:09:01.891Z,65.89
2022-12-05T05:11:15.566Z,65.31
2022-12-05T05:13:17.314Z,64.78
2022-12-05T05:15:19.184Z,64.72
2022-12-05T05:17:20.987Z,64.96
2022-12-05T05:19:23.314Z,65.04
2022-12-05T05:21:31.295Z,64.52
2022-12-05T05:23:33.014Z,64.55
2022-12-05T05:25:34.909Z,65.10
2022-12-05T05:27:36.699Z,64.92
2022-12-05T05:29:38.440Z,65.13
2022-12-05T05:31:41.214Z,64.31
2022-12-05T05:33:43.072Z,63.96
2022-12-05T05:35:44.825Z,64.72
2022-12-05T05:37:46.645Z,64.39
2022-12-05T05:39:48.394Z,64.43
2022-12-05T05:41:50.269Z,64.05
2022-12-05T05:43:52.885Z,64.10
2022-12-05T05:45:54.709Z,64.19
2022-12-05T05:47:56.499Z,63.96
2022-12-05T05:49:58.594Z,64.20
2022-12-05T05:52:00.633Z,64.35
2022-12-05T05:54:02.472Z,64.01
2022-12-05T05:56:05.879Z,64.29
2022-12-05T05:58:08.674Z,64.20
2022-12-05T06:00:11.464Z,64.29
2022-12-05T06:02:13.253Z,64.59
2022-12-05T06:04:15.133Z,64.06
2022-12-05T06:06:17.339Z,63.57
2022-12-05T06:08:19.112Z,63.46
2022-12-05T06:10:21.034Z,63.89
2022-12-05T06:12:23.324Z,63.68
2022-12-05T06:14:25.119Z,63.81
2022-12-05T06:16:26.959Z,63.75
2022-12-05T06:18:28.792Z,63.36
2022-12-05T06:20:30.635Z,63.35
2022-12-05T06:22:32.624Z,63.00
2022-12-05T06:24:34.405Z,62.99
2022-12-05T06:26:36.144Z,62.41
2022-12-05T06:28:39.532Z,62.81
2022-12-05T06:30:41.295Z,62.61
2022-12-05T06:32:43.086Z,62.80
2022-12-05T06:34:44.880Z,62.73
2022-12-05T06:36:46.620Z,62.86
2022-12-05T06:38:49.198Z,62.53
2022-12-05T06:40:50.995Z,62.65
2022-12-05T06:42:52.747Z,62.99
2022-12-05T06:44:54.489Z,63.13
2022-12-05T06:46:56.660Z,62.62
2022-12-05T06:48:59.527Z,62.29
2022-12-05T06:51:01.408Z,62.27
2022-12-05T06:53:03.209Z,62.78
2022-12-05T06:55:05.907Z,62.20
2022-12-05T06:57:07.744Z,62.59
2022-12-05T06:59:09.650Z,62.31
2022-12-05T07:01:23.570Z,61.46
2022-12-05T07:03:25.602Z,61.27
2022-12-05T07:05:27.424Z,61.74
2022-12-05T07:07:30.136Z,61.22
2022-12-05T07:09:41.412Z,61.75
2022-12-05T07:11:43.205Z,61.36
2022-12-05T07:13:45.247Z,61.25
2022-12-05T07:15:48.299Z,61.12
2022-12-05T07:17:50.060Z,61.12
2022-12-05T07:19:53.413Z,61.30
2022-12-05T07:21:55.300Z,60.97
2022-12-05T07:23:57.164Z,61.29
2022-12-05T07:25:59.049Z,61.54
2022-12-05T07:28:00.944Z,61.51
2022-12-05T07:30:02.980Z,61.71
2022-12-05T07:32:05.092Z,61.56
2022-12-05T07:34:06.965Z,61.94
2022-12-05T07:36:12.440Z,61.10
2022-12-05T07:38:14.259Z,61.68
2022-12-05T07:40:16.474Z,61.21
2022-12-05T07:42:18.386Z,61.50
2022-12-05T07:44:20.220Z,60.65
2022-12-05T07:46:23.026Z,61.29
2022-12-05T07:48:24.905Z,61.16
2022-12-05T07:50:26.751Z,61.06
2022-12-05T07:52:28.729Z,61.79
2022-12-05T07:54:30.632Z,61.43
2022-12-05T07:56:32.645Z,61.42
2022-12-05T07:58:35.937Z,61.27
2022-12-05T08:00:37.805Z,61.40
2022-12-05T08:02:40.920Z,61.35
2022-12-05T08:04:43.125Z,61.28
2022-12-05T08:06:44.950Z,61.57
2022-12-05T08:08:50.280Z,61.62
2022-12-05T08:10:52.315Z,61.08
2022-12-05T08:12:54.215Z,61.20
2022-12-05T08:14:56.077Z,61.65
2022-12-05T08:16:58.109Z,61.59
2022-12-05T08:19:03.341Z,61.98
2022-12-05T08:21:07.517Z,61.77
2022-12-05T08:23:09.460Z,62.01
2022-12-05T08:25:11.438Z,62.26
2022-12-05T08:27:13.354Z,61.95
2022-12-05T08:29:16.150Z,61.83
2022-12-05T08:31:19.973Z,61.66
2022-12-05T08:33:22.054Z,61.81
2022-12-05T08:35:24.015Z,62.04
2022-12-05T08:37:25.854Z,61.95
2022-12-05T08:39:27.825Z,61.96
2022-12-05T08:41:30.488Z,61.67
2022-12-05T08:43:32.959Z,62.29
2022-12-05T08:45:34.925Z,62.71
2022-12-05T08:47:37.300Z,62.15
2022-12-05T08:49:39.261Z,62.60
2022-12-05T08:51:42.345Z,61.90
2022-12-05T08:53:44.984Z,61.93
2022-12-05T08:55:47.498Z,61.86
2022-12-05T08:57:49.384Z,62.29
2022-12-05T08:59:51.310Z,62.00
2022-12-05T09:01:53.344Z,62.11
2022-12-05T09:03:55.339Z,61.96
2022-12-05T09:06:07.676Z,62.40
2022-12-05T09:08:09.694Z,61.89
2022-12-05T09:10:11.715Z,62.72
2022-12-05T09:12:15.004Z,62.14
2022-12-05T09:14:17.842Z,62.64
2022-12-05T09:16:23.241Z,61.85
2022-12-05T09:18:25.175Z,62.48
2022-12-05T09:20:27.020Z,62.49
2022-12-05T09:22:28.933Z,62.14
2022-12-05T09:24:30.860Z,62.74
2022-12-05T09:26:32.935Z,62.67
2022-12-05T09:28:35.534Z,62.20
2022-12-05T09:30:37.856Z,62.85
2022-12-05T09:32:39.801Z,62.85
2022-12-05T09:34:41.674Z,62.55
2022-12-05T09:36:44.130Z,62.52
2022-12-05T09:38:46.965Z,62.96
2022-12-05T09:41:00.929Z,62.22
2022-12-05T09:43:08.615Z,62.27
2022-12-05T09:45:34.583Z,62.05
2022-12-05T09:47:46.046Z,62.04
2022-12-05T09:49:54.000Z,62.11
2022-12-05T09:51:58.384Z,62.14
2022-12-05T09:54:00.335Z,62.35
2022-12-05T09:56:09.859Z,62.72
2022-12-05T09:58:18.874Z,61.69
2022-12-05T10:00:21.254Z,62.08
2022-12-05T10:02:23.674Z,61.83
2022-12-05T10:04:35.099Z,62.49
2022-12-05T10:06:56.838Z,62.02
2022-12-05T10:09:19.780Z,61.77
2022-12-05T10:11:34.389Z,61.93
2022-12-05T10:13:54.279Z,61.80
2022-12-05T10:16:01.007Z,61.47
2022-12-05T10:18:11.076Z,61.61
2022-12-05T10:20:19.374Z,61.15
2022-12-05T10:22:29.934Z,61.09
2022-12-05T10:24:32.239Z,61.26
2022-12-05T10:26:41.961Z,61.16
2022-12-05T10:29:02.566Z,61.26
2022-12-05T10:31:10.269Z,60.84
2022-12-05T10:33:18.979Z,61.68
2022-12-05T10:35:21.385Z,60.84
2022-12-05T10:37:24.516Z,61.15
2022-12-05T10:39:27.425Z,60.02
2022-12-05T10:41:29.460Z,59.80
2022-12-05T10:43:33.715Z,60.50
2022-12-05T10:45:42.176Z,60.21
2022-12-05T10:47:44.750Z,60.28
2022-12-05T10:49:47.356Z,60.67
2022-12-05T10:51:50.730Z,61.08
2022-12-05T10:53:54.496Z,60.07
2022-12-05T10:56:28.740Z,60.46
2022-12-05T10:58:24.239Z,60.14
2022-12-05T11:00:30.693Z,60.18
2022-12-05T11:02:34.557Z,60.15
2022-12-05T11:04:45.322Z,60.09
2022-12-05T11:06:51.340Z,60.32
2022-12-05T11:09:04.566Z,60.11
2022-12-05T11:11:18.045Z,59.70
2022-12-05T11:13:26.237Z,60.45
2022-12-05T11:15:31.101Z,59.08
2022-12-05T11:17:37.776Z,60.29
2022-12-05T11:19:39.936Z,59.67
2022-12-05T11:21:43.895Z,59.98
2022-12-05T11:23:46.601Z,60.71
2022-12-05T11:25:49.109Z,60.40
2022-12-05T11:27:51.160Z,59.67
2022-12-05T11:29:56.222Z,60.11
2022-12-05T11:31:58.496Z,59.91
2022-12-05T11:34:13.811Z,60.44
2022-12-05T11:36:22.641Z,60.05
2022-12-05T11:38:28.483Z,60.20
2022-12-05T11:40:45.681Z,60.79
2022-12-05T11:43:05.599Z,60.99
2022-12-05T11:45:26.275Z,60.91
2022-12-05T11:47:47.586Z,60.45
2022-12-05T11:50:00.076Z,61.04
2022-12-05T11:52:18.661Z,60.90
2022-12-05T11:54:56.821Z,61.00
2022-12-05T11:56:57.556Z,60.12
2022-12-05T11:59:09.802Z,60.32
2022-12-05T12:01:27.505Z,60.38
2022-12-05T12:03:38.917Z,60.28
2022-12-05T12:05:49.315Z,60.63
2022-12-05T12:08:12.374Z,60.51
2022-12-05T12:10:42.543Z,60.72
2022-12-05T12:12:54.223Z,60.49
2022-12-05T12:15:15.565Z,60.79
2022-12-05T12:17:40.597Z,60.37
2022-12-05T12:20:02.635Z,60.52
2022-12-05T12:22:15.081Z,60.49
2022-12-05T12:24:29.187Z,59.69
2022-12-05T12:26:40.941Z,60.45
2022-12-05T12:28:55.708Z,59.61
2022-12-05T12:31:06.156Z,60.02
2022-12-05T12:33:26.842Z,59.99
2022-12-05T12:35:33.297Z,60.03
2022-12-05T12:37:54.240Z,60.23
2022-12-05T12:40:05.842Z,60.57
2022-12-05T12:42:18.645Z,60.15
2022-12-05T12:44:39.766Z,60.61
2022-12-05T12:46:52.290Z,60.13
2022-12-05T12:49:16.654Z,59.97
2022-12-05T12:51:19.409Z,59.77
2022-12-05T12:53:38.661Z,60.26
2022-12-05T12:55:41.267Z,60.34
2022-12-05T12:58:02.711Z,60.68
2022-12-05T13:00:23.699Z,60.47
2022-12-05T13:02:32.374Z,60.01
2022-12-05T13:04:45.192Z,59.92
2022-12-05T13:06:58.413Z,59.91
2022-12-05T13:09:03.919Z,59.58
2022-12-05T13:11:10.734Z,59.89
2022-12-05T13:13:19.057Z,60.40
2022-12-05T13:15:31.904Z,60.38
2022-12-05T13:17:34.415Z,60.11
2022-12-05T13:19:48.988Z,60.12
2022-12-05T13:21:52.136Z,59.71
2022-12-05T13:24:03.557Z,60.56
2022-12-05T13:26:10.776Z,60.39
2022-12-05T13:28:32.182Z,60.34
2022-12-05T13:30:56.432Z,59.86
2022-12-05T13:33:05.097Z,60.19
2022-12-05T13:35:07.662Z,59.88
2022-12-05T13:37:27.444Z,59.25
2022-12-05T13:39:39.477Z,58.60
2022-12-05T13:41:55.393Z,58.72
2022-12-05T13:44:06.307Z,59.18
2022-12-05T13:46:14.003Z,58.86
2022-12-05T13:48:23.337Z,58.99
2022-12-05T13:50:33.407Z,59.19
2022-12-05T13:52:48.596Z,58.86
2022-12-05T13:55:07.064Z,59.47
2022-12-05T13:57:45.596Z,58.68
2022-12-05T14:00:00.292Z,58.39
2022-12-05T14:02:02.759Z,58.76
2022-12-05T14:04:23.695Z,59.15
2022-12-05T14:06:56.358Z,59.03
2022-12-05T14:08:58.619Z,58.28
2022-12-05T14:11:01.642Z,58.19
2022-12-05T14:13:24.029Z,59.13
2022-12-05T14:15:38.131Z,58.78
2022-12-05T14:17:45.382Z,58.15
2022-12-05T14:19:53.231Z,58.10
2022-12-05T14:22:14.476Z,58.14
2022-12-05T14:24:33.491Z,58.72
2022-12-05T14:26:51.724Z,58.71
2022-12-05T14:29:00.955Z,59.00
2022-12-05T14:31:13.780Z,58.60
2022-12-05T14:33:18.269Z,58.86
2022-12-05T14:35:24.865Z,58.23
2022-12-05T14:37:32.050Z,58.65
2022-12-05T14:39:50.414Z,58.64
2022-12-05T14:41:58.718Z,58.60
2022-12-05T14:44:08.190Z,58.44
2022-12-05T14:46:25.124Z,58.89
2022-12-05T14:48:31.419Z,58.99
2022-12-05T14:50:36.374Z,58.81
2022-12-05T14:52:41.298Z,59.03
2022-12-05T14:54:44.458Z,59.19
2022-12-05T14:56:53.243Z,59.15
2022-12-05T14:59:00.840Z,59.17
2022-12-05T15:01:09.567Z,59.75
2022-12-05T15:03:25.519Z,59.58
2022-12-05T15:05:33.515Z,59.20
2022-12-05T15:07:39.621Z,59.22
2022-12-05T15:09:55.335Z,59.35
2022-12-05T15:12:02.409Z,59.74
2022-12-05T15:14:09.274Z,59.82
2022-12-05T15:16:20.412Z,59.94
2022-12-05T15:18:31.007Z,59.41
2022-12-05T15:20:47.212Z,59.31
2022-12-05T15:22:49.880Z,59.66
2022-12-05T15:24:52.536Z,59.96
2022-12-05T15:26:56.794Z,59.62
2022-12-05T15:29:09.053Z,60.19
2022-12-05T15:31:14.519Z,59.89
2022-12-05T15:33:17.850Z,60.26
2022-12-05T15:35:24.297Z,60.00
2022-12-05T15:37:47.650Z,60.80
2022-12-05T15:39:52.648Z,61.17
2022-12-05T15:41:56.876Z,61.13
2022-12-05T15:44:00.323Z,60.91
2022-12-05T15:46:26.299Z,60.93
2022-12-05T15:48:28.666Z,61.13
2022-12-05T15:50:39.808Z,61.79
2022-12-05T15:52:48.578Z,61.62
2022-12-05T15:54:54.262Z,62.25
2022-12-05T15:57:20.411Z,62.19
2022-12-05T15:59:29.844Z,62.23
2022-12-05T16:01:38.728Z,61.70
2022-12-05T16:03:48.994Z,61.75
2022-12-05T16:06:05.070Z,62.07
2022-12-05T16:08:10.021Z,62.01
2022-12-05T16:10:14.761Z,62.33
2022-12-05T16:12:28.006Z,61.96
2022-12-05T16:17:01.957Z,62.13
2022-12-05T16:19:13.553Z,63.02
2022-12-05T16:21:38.493Z,63.17
2022-12-05T16:23:44.753Z,63.50
2022-12-05T16:25:47.690Z,63.34
2022-12-05T16:28:01.432Z,63.25
2022-12-05T16:30:14.273Z,63.51
2022-12-05T16:32:25.103Z,63.15
2022-12-05T16:34:29.113Z,63.73
2022-12-05T16:36:32.973Z,63.80
2022-12-05T16:38:37.293Z,62.82
2022-12-05T16:40:43.741Z,63.36
2022-12-05T16:42:46.726Z,63.45
2022-12-05T16:44:50.361Z,63.46
2022-12-05T16:46:54.060Z,63.81
2022-12-05T16:49:16.251Z,63.34
2022-12-05T16:51:26.666Z,63.24
2022-12-05T16:53:34.016Z,63.16
2022-12-05T16:55:39.326Z,63.51
2022-12-05T16:57:42.173Z,63.55
2022-12-05T16:59:49.231Z,63.55
2022-12-05T17:01:51.955Z,63.37
2022-12-05T17:03:56.675Z,63.33
2022-12-05T17:06:00.476Z,63.45
2022-12-05T17:08:04.395Z,63.52
2022-12-05T17:10:08.693Z,63.60
2022-12-05T17:12:19.429Z,63.54
2022-12-05T17:14:22.190Z,63.14
2022-12-05T17:16:27.181Z,63.61
2022-12-05T17:18:32.042Z,63.71
2022-12-05T17:20:35.635Z,63.30
2022-12-05T17:22:38.565Z,63.83
2022-12-05T17:24:41.499Z,63.37
2022-12-05T17:26:45.264Z,63.52
2022-12-05T17:28:49.140Z,63.50
2022-12-05T17:30:53.997Z,63.31
2022-12-05T17:33:00.475Z,63.43
2022-12-05T17:35:06.780Z,63.29
2022-12-05T17:37:10.286Z,63.78
2022-12-05T17:39:13.357Z,64.12
2022-12-05T17:41:20.687Z,63.65
2022-12-05T17:43:25.449Z,64.22
2022-12-05T17:45:28.939Z,63.76
2022-12-05T17:47:32.040Z,63.12
2022-12-05T17:49:34.736Z,63.48
2022-12-05T17:51:52.572Z,62.91
2022-12-05T17:54:02.268Z,63.65
2022-12-05T17:56:06.120Z,63.33
2022-12-05T17:58:10.873Z,63.94
2022-12-05T18:00:16.296Z,63.89
2022-12-05T18:02:21.140Z,63.38
2022-12-05T18:04:24.493Z,62.77
2022-12-05T18:06:29.470Z,63.04
2022-12-05T18:08:32.330Z,62.71
2022-12-05T18:10:36.659Z,63.14
2022-12-05T18:12:39.447Z,63.09
2022-12-05T18:14:41.848Z,62.79
2022-12-05T18:16:44.739Z,62.68
2022-12-05T18:18:47.567Z,62.26
2022-12-05T18:20:50.440Z,62.50
2022-12-05T18:22:53.118Z,61.83
2022-12-05T18:24:57.754Z,62.45
2022-12-05T18:27:00.889Z,62.21
2022-12-05T18:29:04.367Z,62.68
2022-12-05T18:31:10.550Z,62.14
2022-12-05T18:33:17.306Z,62.19
2022-12-05T18:35:39.806Z,62.42
2022-12-05T18:37:42.379Z,62.53
2022-12-05T18:39:46.239Z,62.03
2022-12-05T18:41:49.006Z,62.57
2022-12-05T18:43:52.200Z,61.94
2022-12-05T18:45:58.343Z,62.22
2022-12-05T18:48:23.521Z,61.89
2022-12-05T18:50:24.934Z,62.30
2022-12-05T18:52:27.739Z,62.71
2022-12-05T18:54:30.582Z,62.22
2022-12-05T18:56:35.937Z,61.97
2022-12-05T18:58:39.480Z,62.26
2022-12-05T19:00:42.512Z,61.89
2022-12-05T19:02:45.245Z,61.66
2022-12-05T19:04:48.677Z,62.47
2022-12-05T19:06:55.611Z,61.97
2022-12-05T19:09:01.794Z,61.75
2022-12-05T19:11:05.941Z,61.84
2022-12-05T19:13:08.762Z,62.52
2022-12-05T19:15:12.372Z,62.31
2022-12-05T19:17:15.133Z,61.45
2022-12-05T19:19:18.418Z,61.86
2022-12-05T19:21:20.961Z,61.38
2022-12-05T19:23:24.328Z,62.18
2022-12-05T19:25:26.906Z,61.96
2022-12-05T19:27:31.932Z,61.82
2022-12-05T19:29:34.434Z,61.78
2022-12-05T19:31:37.018Z,62.00
2022-12-05T19:33:42.110Z,61.71
2022-12-05T19:35:44.639Z,61.93
2022-12-05T19:37:48.384Z,62.48
2022-12-05T19:39:52.348Z,62.17
2022-12-05T19:41:57.920Z,62.17
2022-12-05T19:44:01.751Z,61.29
2022-12-05T19:46:07.936Z,62.59
2022-12-05T19:48:10.580Z,62.50
2022-12-05T19:50:13.118Z,61.66
2022-12-05T19:52:19.294Z,62.27
2022-12-05T19:54:24.640Z,62.03
2022-12-05T19:56:28.918Z,62.20
2022-12-05T19:58:34.858Z,62.75
2022-12-05T20:00:37.660Z,62.49
2022-12-05T20:02:40.607Z,62.50
2022-12-05T20:04:43.726Z,62.91
2022-12-05T20:06:49.616Z,62.31
2022-12-05T20:08:53.947Z,63.20
2022-12-05T20:10:56.475Z,63.06
2022-12-05T20:13:00.572Z,62.93
2022-12-05T20:15:06.066Z,62.22
2022-12-05T20:17:08.476Z,62.74
2022-12-05T20:19:11.795Z,62.74
2022-12-05T20:21:18.125Z,62.86
2022-12-05T20:23:20.601Z,62.54
2022-12-05T20:25:23.094Z,63.39
2022-12-05T20:27:25.860Z,63.31
2022-12-05T20:29:28.630Z,63.05
2022-12-05T20:31:35.737Z,63.12
2022-12-05T20:33:39.426Z,62.96
2022-12-05T20:35:42.644Z,63.00
2022-12-05T20:37:45.537Z,63.21
2022-12-05T20:39:50.420Z,62.98
2022-12-05T20:41:53.117Z,62.99
2022-12-05T20:43:58.571Z,62.66
2022-12-05T20:46:13.020Z,63.19
2022-12-05T20:48:15.704Z,63.66
2022-12-05T20:50:18.871Z,63.25
2022-12-05T20:52:21.307Z,63.39
2022-12-05T20:54:23.862Z,63.35
2022-12-05T20:56:29.888Z,63.71
2022-12-05T20:58:32.574Z,62.99
2022-12-05T21:00:35.011Z,63.20
2022-12-05T21:02:37.651Z,62.80
2022-12-05T21:04:41.472Z,62.72
2022-12-05T21:06:47.017Z,62.40
2022-12-05T21:08:50.755Z,63.13
2022-12-05T21:10:56.296Z,63.07
2022-12-05T21:13:01.768Z,62.76
2022-12-05T21:15:04.892Z,62.57
2022-12-05T21:17:07.453Z,62.33
2022-12-05T21:19:10.135Z,62.65
2022-12-05T21:21:16.176Z,62.55
2022-12-05T21:23:18.746Z,63.08
2022-12-05T21:25:22.348Z,62.78
2022-12-05T21:27:24.890Z,62.54
2022-12-05T21:29:27.541Z,62.54
2022-12-05T21:31:34.613Z,62.21
2022-12-05T21:33:37.195Z,62.51
2022-12-05T21:35:39.671Z,62.52
2022-12-05T21:37:41.945Z,62.24
2022-12-05T21:39:44.534Z,62.46
2022-12-05T21:41:47.300Z,61.65
2022-12-05T21:43:54.606Z,62.44
2022-12-05T21:45:57.980Z,61.88
2022-12-05T21:48:00.665Z,62.29
2022-12-05T21:50:03.415Z,62.11
2022-12-05T21:52:05.960Z,61.46
2022-12-05T21:54:08.851Z,61.60
2022-12-05T21:56:16.447Z,61.28
2022-12-05T21:58:18.740Z,61.41
2022-12-05T22:00:20.963Z,61.11
2022-12-05T22:02:23.414Z,61.98
2022-12-05T22:04:25.976Z,61.40
2022-12-05T22:06:31.434Z,61.62
2022-12-05T22:08:34.510Z,61.69
2022-12-05T22:10:37.275Z,61.64
2022-12-05T22:12:40.125Z,61.67
2022-12-05T22:14:42.865Z,61.81
2022-12-05T22:16:45.274Z,62.19
2022-12-05T22:18:48.207Z,62.16
2022-12-05T22:21:01.555Z,61.64
2022-12-05T22:23:03.930Z,61.35
2022-12-05T22:25:06.849Z,61.39
2022-12-05T22:27:09.136Z,61.51
2022-12-05T22:29:11.421Z,62.10
2022-12-05T22:31:15.730Z,61.71
2022-12-05T22:33:18.317Z,61.73
2022-12-05T22:35:20.509Z,61.96
2022-12-05T22:37:22.804Z,62.02
2022-12-05T22:39:25.388Z,61.90
2022-12-05T22:41:27.742Z,61.63
2022-12-05T22:43:32.051Z,61.27
2022-12-05T22:45:36.076Z,61.44
2022-12-05T22:47:38.114Z,61.50
2022-12-05T22:49:40.176Z,61.84
2022-12-05T22:51:42.277Z,60.80
2022-12-05T22:53:45.499Z,61.14
2022-12-05T22:55:47.904Z,61.21
2022-12-05T22:57:49.848Z,61.06
2022-12-05T22:59:51.803Z,61.32
2022-12-05T23:01:53.735Z,61.46
2022-12-05T23:03:59.189Z,60.86
2022-12-05T23:06:11.240Z,61.30
2022-12-05T23:08:14.343Z,60.42
2022-12-05T23:10:16.685Z,60.39
2022-12-05T23:12:19.196Z,60.13
2022-12-05T23:14:21.473Z,60.45
2022-12-05T23:16:26.721Z,60.39
2022-12-05T23:18:29.055Z,60.75
2022-12-05T23:20:31.110Z,60.53
2022-12-05T23:22:35.315Z,60.44
2022-12-05T23:24:37.495Z,60.64
2022-12-05T23:26:44.576Z,60.86
2022-12-05T23:28:46.761Z,60.18
2022-12-05T23:30:48.883Z,60.78
2022-12-05T23:32:51.184Z,60.47
2022-12-05T23:34:53.334Z,60.55
2022-12-05T23:36:55.545Z,61.32
2022-12-05T23:38:57.725Z,60.83
2022-12-05T23:41:01.375Z,60.59
2022-12-05T23:43:04.515Z,61.30
2022-12-05T23:45:07.875Z,61.21
2022-12-05T23:47:10.046Z,60.58
2022-12-05T23:49:12.240Z,61.17
2022-12-05T23:51:16.809Z,60.66
2022-12-05T23:53:18.957Z,61.33
2022-12-05T23:55:21.136Z,61.05
2022-12-05T23:57:23.394Z,60.85
2022-12-05T23:59:25.483Z,61.02
